Prague, Czech Republic

8:00 AM CET on January 26, 2015 (GMT +0100)
Jenec | Change Station
CLOSE
Current Station
Personal Weather Station
Location: Jenec, Stredocesky Kraj
Elevation: 1211 ft
Nearby Weather Stations

Elev 1211 ft 50.09 °N, 14.21 °E | Updated 17 seconds ago

Mostly Cloudy
Mostly Cloudy
27.0 °F
Feels Like 27 °F
N
0.7
Wind Variable Wind from SW
Gusts 4.5 mph

Today
High -- | Low -- °F
--% Chance of Precip.
Yesterday
High -- | Low -- °F
Precip. -- in
7:45 AM 4:45 PM
Waxing Crescent, 40% visible
Pressure 30.24 in
Visibility 6.2 miles
Clouds Mostly Cloudy 3300 ft
Windchill 27 °F
Dew Point 23 °F
Humidity 85%
Rainfall 0.00 in
Snow Depth Not available.
UV 0 out of 12
Pollen Not available.
Air Quality Not available.
Flu Activity Not available.
METAR LKPR 260630Z 21003KT 9999 BKN033 M03/M03 Q1024 R24/25//95 R30/35//95 NOSIG

More Conditions Fewer Conditions

Pressure 30.24 in
Visibility 6.2 miles
Clouds Mostly Cloudy 3300 ft
Windchill 27 °F
Dew Point 23 °F
Humidity 85%
Rainfall 0.00 in
Snow Depth Not available.
UV 0 out of 12
Pollen Not available.
Air Quality Not available.
Flu Activity Not available.
METAR LKPR 260630Z 21003KT 9999 BKN033 M03/M03 Q1024 R24/25//95 R30/35//95 NOSIG

More Conditions Fewer Conditions

10-Day Weather Forecast

Almanac

Astronomy

Jan. 26, 2015 Rise Set
Actual Time
Civil Twilight
Nautical Twilight
Astronomical Twilight
Moon
Length of Visible Light
Length of Day
Tomorrow will be .
, % of the Moon is Illuminated

Today's Extremes

Country Highs Country Lows

Community

WunderPhotos

Upload Photos

1,790,156 photos uploaded!

WunderBlogs® & News

Nearby

Air Quality

  Air Quality AQ Index Pollutant
Not available.

Snow Depth

Station Depth Elevation

Earthquake Activity

City Distance Mag. Time & Date
Minimum magnitude displayed is 2.5.

Coastal Water Temperatures

Place Temperature

Nearby Weather Stations